createdAt,value
2022-10-19T00:00:30.715Z,102196.97
2022-10-19T00:05:32.201Z,102199.97
2022-10-19T00:10:34.221Z,102199.16
2022-10-19T00:15:39.801Z,102193.38
2022-10-19T00:20:41.343Z,102199.00
2022-10-19T00:25:42.859Z,102185.91
2022-10-19T00:30:44.440Z,102180.53
2022-10-19T00:35:45.991Z,102188.81
2022-10-19T00:40:48.722Z,102184.81
2022-10-19T00:45:51.026Z,102194.28
2022-10-19T00:50:56.051Z,102201.97
2022-10-19T00:55:59.680Z,102204.88
2022-10-19T01:01:04.587Z,102203.34
2022-10-19T01:06:06.474Z,102205.09
2022-10-19T01:11:35.597Z,102201.78
2022-10-19T01:16:52.479Z,102206.34
2022-10-19T01:22:08.868Z,102200.47
2022-10-19T01:27:13.112Z,102204.88
2022-10-19T01:32:37.688Z,102188.22
2022-10-19T01:38:10.889Z,102187.59
2022-10-19T01:43:30.772Z,102179.56
2022-10-19T01:48:35.833Z,102177.25
2022-10-19T01:53:44.407Z,102152.63
2022-10-19T01:58:47.358Z,102152.63
2022-10-19T02:03:50.213Z,102151.50
2022-10-19T02:08:53.932Z,102148.63
2022-10-19T02:14:12.842Z,102150.84
2022-10-19T02:19:16.428Z,102152.53
2022-10-19T02:24:18.473Z,102143.22
2022-10-19T02:29:20.385Z,102154.28
2022-10-19T02:34:21.985Z,102155.72
2022-10-19T02:39:24.116Z,102139.09
2022-10-19T02:44:40.756Z,102134.97
2022-10-19T02:49:43.576Z,102132.72
2022-10-19T02:54:45.258Z,102125.94
2022-10-19T02:59:46.979Z,102126.44
2022-10-19T03:04:48.549Z,102135.16
2022-10-19T03:09:50.269Z,102130.13
2022-10-19T03:14:51.806Z,102120.63
2022-10-19T03:19:53.283Z,102122.34
2022-10-19T03:24:54.806Z,102119.81
2022-10-19T03:29:56.279Z,102116.44
2022-10-19T03:34:57.841Z,102118.88
2022-10-19T03:39:59.399Z,102117.59
2022-10-19T03:45:01.028Z,102118.34
2022-10-19T03:50:02.614Z,102111.53
2022-10-19T03:55:04.394Z,102114.88
2022-10-19T04:00:06.413Z,102116.81
2022-10-19T04:05:13.451Z,102117.22
2022-10-19T04:10:15.064Z,102123.56
2022-10-19T04:15:16.691Z,102126.47
2022-10-19T04:20:18.259Z,102133.06
2022-10-19T04:25:19.820Z,102136.47
2022-10-19T04:30:21.320Z,102130.28
2022-10-19T04:35:22.823Z,102135.78
2022-10-19T04:40:24.291Z,102134.28
2022-10-19T04:45:25.825Z,102126.53
2022-10-19T04:50:27.312Z,102123.81
2022-10-19T04:55:30.341Z,102136.00
2022-10-19T05:00:31.828Z,102124.97
2022-10-19T05:05:33.520Z,102120.03
2022-10-19T05:10:36.389Z,102129.22
2022-10-19T05:15:37.886Z,102114.19
2022-10-19T05:20:39.392Z,102114.19
2022-10-19T05:25:40.855Z,102113.69
2022-10-19T05:30:46.709Z,102099.56
2022-10-19T05:35:50.385Z,102103.44
2022-10-19T05:40:53.730Z,102103.16
2022-10-19T05:45:55.467Z,102112.38
2022-10-19T05:50:57.025Z,102105.78
2022-10-19T05:55:58.811Z,102102.19
2022-10-19T06:01:01.522Z,102104.13
2022-10-19T06:06:05.225Z,102103.88
2022-10-19T06:11:12.485Z,102097.53
2022-10-19T06:16:16.019Z,102104.13
2022-10-19T06:21:20.920Z,102107.84
2022-10-19T06:26:22.966Z,102115.00
2022-10-19T06:31:24.676Z,102121.88
2022-10-19T06:36:28.754Z,102128.63
2022-10-19T06:41:31.322Z,102141.16
2022-10-19T06:46:44.103Z,102144.22
2022-10-19T06:51:45.658Z,102127.97
2022-10-19T06:56:47.310Z,102129.06
2022-10-19T07:01:51.726Z,102128.09
2022-10-19T07:06:53.338Z,102131.22
2022-10-19T07:11:55.274Z,102124.06
2022-10-19T07:16:57.263Z,102115.53
2022-10-19T07:21:58.898Z,102125.75
2022-10-19T07:27:00.520Z,102129.06
2022-10-19T07:32:02.027Z,102134.56
2022-10-19T07:37:03.535Z,102140.03
2022-10-19T07:42:05.064Z,102138.81
2022-10-19T07:47:08.496Z,102135.28
2022-10-19T07:52:09.998Z,102135.91
2022-10-19T07:57:11.993Z,102133.59
2022-10-19T08:02:15.799Z,102133.06
2022-10-19T08:07:17.584Z,102131.31
2022-10-19T08:12:19.147Z,102132.41
2022-10-19T08:17:20.652Z,102135.03
2022-10-19T08:22:22.318Z,102136.75
2022-10-19T08:27:23.956Z,102131.06
2022-10-19T08:32:25.570Z,102119.97
2022-10-19T08:37:40.797Z,102122.34
2022-10-19T08:42:53.617Z,102105.34
2022-10-19T08:48:10.207Z,102110.25
2022-10-19T08:53:33.201Z,102096.88
2022-10-19T08:59:05.497Z,102088.00
2022-10-19T09:04:32.702Z,102087.88
2022-10-19T09:09:38.139Z,102083.81
2022-10-19T09:14:57.687Z,102081.66
2022-10-19T09:20:16.827Z,102073.78
2022-10-19T09:25:23.196Z,102086.41
2022-10-19T09:30:24.604Z,102081.91
2022-10-19T09:35:36.021Z,102079.97
2022-10-19T09:40:37.584Z,102075.75
2022-10-19T09:46:10.557Z,102080.56
2022-10-19T09:51:19.960Z,102072.75
2022-10-19T09:56:26.743Z,102069.88
2022-10-19T10:01:41.613Z,102069.91
2022-10-19T10:06:48.098Z,102070.31
2022-10-19T10:11:51.046Z,102059.41
2022-10-19T10:17:12.643Z,102052.59
2022-10-19T10:22:28.043Z,102040.94
2022-10-19T10:27:38.302Z,102035.97
2022-10-19T10:32:50.079Z,102039.56
2022-10-19T10:37:52.838Z,102040.97
2022-10-19T10:42:57.614Z,102037.19
2022-10-19T10:48:13.808Z,102015.28
2022-10-19T10:53:36.090Z,102011.22
2022-10-19T10:59:21.865Z,102003.50
2022-10-19T11:04:28.356Z,102011.47
2022-10-19T11:09:42.258Z,102006.13
2022-10-19T11:14:43.754Z,101986.47
2022-10-19T11:19:45.493Z,101974.03
2022-10-19T11:24:49.595Z,101965.41
2022-10-19T11:29:57.051Z,101955.91
2022-10-19T11:35:20.366Z,101955.19
2022-10-19T11:40:26.088Z,101953.06
2022-10-19T11:45:58.343Z,101941.72
2022-10-19T11:51:20.831Z,101939.16
2022-10-19T11:57:02.184Z,101932.88
2022-10-19T12:02:36.054Z,101922.84
2022-10-19T12:08:05.144Z,101905.28
2022-10-19T12:13:13.198Z,101910.56
2022-10-19T12:18:36.494Z,101894.66
2022-10-19T12:23:40.023Z,101879.34
2022-10-19T12:28:46.864Z,101875.84
2022-10-19T12:34:27.105Z,101865.88
2022-10-19T12:39:40.700Z,101858.88
2022-10-19T12:45:03.973Z,101842.19
2022-10-19T12:50:05.762Z,101832.03
2022-10-19T12:55:16.088Z,101826.16
2022-10-19T13:00:23.824Z,101821.16
2022-10-19T13:05:29.231Z,101820.28
2022-10-19T13:10:32.766Z,101799.66
2022-10-19T13:15:34.362Z,101789.09
2022-10-19T13:25:45.523Z,101770.91
2022-10-19T13:30:47.029Z,101765.59
2022-10-19T13:35:49.262Z,101766.19
2022-10-19T13:40:50.730Z,101756.09
2022-10-19T13:46:01.061Z,101760.28
2022-10-19T13:51:20.103Z,101757.63
2022-10-19T13:56:39.078Z,101751.97
2022-10-19T14:02:19.333Z,101744.25
2022-10-19T14:07:30.089Z,101741.00
2022-10-19T14:12:35.918Z,101737.50
2022-10-19T14:17:42.109Z,101733.88
2022-10-19T14:22:43.497Z,101734.06
2022-10-19T14:27:56.739Z,101724.69
2022-10-19T14:33:02.289Z,101715.06
2022-10-19T14:38:09.046Z,101720.13
2022-10-19T14:43:26.788Z,101703.44
2022-10-19T14:48:28.294Z,101699.97
2022-10-19T14:54:13.651Z,101685.44
2022-10-19T14:59:32.263Z,101675.38
2022-10-19T15:04:38.095Z,101672.22
2022-10-19T15:09:48.697Z,101668.16
2022-10-19T15:14:50.644Z,101664.69
2022-10-19T15:19:52.638Z,101660.63
2022-10-19T15:25:17.330Z,101653.16
2022-10-19T15:30:18.833Z,101649.06
2022-10-19T15:35:27.060Z,101643.88
2022-10-19T15:40:37.289Z,101657.19
2022-10-19T15:45:38.819Z,101650.06
2022-10-19T15:50:44.520Z,101643.53
2022-10-19T15:55:46.258Z,101634.13
2022-10-19T16:00:48.059Z,101635.09
2022-10-19T16:05:49.568Z,101625.91
2022-10-19T16:10:51.159Z,101626.34
2022-10-19T16:16:11.358Z,101618.72
2022-10-19T16:21:13.856Z,101595.63
2022-10-19T16:26:16.169Z,101608.53
2022-10-19T16:31:18.102Z,101602.38
2022-10-19T16:36:19.726Z,101586.56
2022-10-19T16:41:21.386Z,101590.31
2022-10-19T16:46:24.048Z,101596.16
2022-10-19T16:51:25.596Z,101590.44
2022-10-19T16:56:29.518Z,101590.44
2022-10-19T17:01:32.587Z,101587.38
2022-10-19T17:06:34.463Z,101586.59
2022-10-19T17:11:38.800Z,101595.19
2022-10-19T17:16:40.680Z,101592.09
2022-10-19T17:21:42.540Z,101601.03
2022-10-19T17:26:44.768Z,101595.19
2022-10-19T17:31:46.577Z,101587.91
2022-10-19T17:36:48.186Z,101584.53
2022-10-19T17:41:51.444Z,101587.44
2022-10-19T17:46:52.951Z,101581.34
2022-10-19T17:51:54.476Z,101591.97
2022-10-19T17:56:56.010Z,101592.59
2022-10-19T18:01:57.646Z,101589.91
2022-10-19T18:06:59.122Z,101583.66
2022-10-19T18:12:04.787Z,101581.69
2022-10-19T18:17:08.788Z,101579.97
2022-10-19T18:22:10.269Z,101595.03
2022-10-19T18:27:11.740Z,101588.78
2022-10-19T18:32:13.231Z,101579.53
2022-10-19T18:37:14.760Z,101569.06
2022-10-19T18:42:16.293Z,101566.38
2022-10-19T18:47:17.796Z,101559.84
2022-10-19T18:52:19.361Z,101566.81
2022-10-19T18:57:20.939Z,101558.41
2022-10-19T19:02:28.565Z,101549.41
2022-10-19T19:07:36.935Z,101541.47
2022-10-19T19:12:38.751Z,101530.69
2022-10-19T19:17:40.301Z,101526.63
2022-10-19T19:22:41.890Z,101532.06
2022-10-19T19:27:43.405Z,101521.38
2022-10-19T19:32:44.984Z,101521.88
2022-10-19T19:37:46.531Z,101521.28
2022-10-19T19:42:48.051Z,101510.84
2022-10-19T19:47:49.584Z,101498.03
2022-10-19T19:52:51.065Z,101504.66
2022-10-19T19:57:52.742Z,101496.94
2022-10-19T20:02:56.189Z,101492.88
2022-10-19T20:07:57.824Z,101487.72
2022-10-19T20:12:59.389Z,101492.72
2022-10-19T20:18:01.005Z,101495.38
2022-10-19T20:23:02.626Z,101493.97
2022-10-19T20:28:04.442Z,101476.09
2022-10-19T20:33:05.955Z,101471.53
2022-10-19T20:38:07.493Z,101473.00
2022-10-19T20:43:08.999Z,101469.41
2022-10-19T20:48:10.544Z,101472.53
2022-10-19T20:53:15.034Z,101465.97
2022-10-19T20:58:16.552Z,101459.06
2022-10-19T21:03:18.053Z,101458.84
2022-10-19T21:08:19.586Z,101443.53
2022-10-19T21:13:21.076Z,101447.69
2022-10-19T21:18:22.584Z,101435.25
2022-10-19T21:23:24.122Z,101425.56
2022-10-19T21:28:25.674Z,101429.69
2022-10-19T21:33:27.224Z,101424.94
2022-10-19T21:38:29.762Z,101425.94
2022-10-19T21:43:31.756Z,101421.53
2022-10-19T21:48:35.195Z,101416.31
2022-10-19T21:53:36.759Z,101414.88
2022-10-19T21:58:38.351Z,101413.41
2022-10-19T22:03:39.866Z,101401.09
2022-10-19T22:08:45.104Z,101402.56
2022-10-19T22:13:46.787Z,101411.06
2022-10-19T22:18:48.764Z,101405.50
2022-10-19T22:23:58.728Z,101398.44
2022-10-19T22:29:01.148Z,101385.97
2022-10-19T22:34:06.588Z,101372.84
2022-10-19T22:39:08.615Z,101366.13
2022-10-19T22:44:10.150Z,101356.28
2022-10-19T22:49:11.759Z,101341.72
2022-10-19T22:54:13.678Z,101335.28
2022-10-19T22:59:15.264Z,101317.41
2022-10-19T23:04:16.779Z,101319.22
2022-10-19T23:09:18.404Z,101295.00
2022-10-19T23:14:19.901Z,101286.72
2022-10-19T23:19:21.546Z,101287.66
2022-10-19T23:24:23.072Z,101296.84
2022-10-19T23:29:24.571Z,101284.28
2022-10-19T23:34:26.172Z,101286.44
2022-10-19T23:39:27.723Z,101282.56
2022-10-19T23:44:29.248Z,101274.31
2022-10-19T23:49:30.767Z,101269.78
2022-10-19T23:54:32.420Z,101270.22
2022-10-19T23:59:34.076Z,101273.13
